Time;durP1;ratioP1;P1;durP2;ratioP2;P2;SDS_P1;SDS_P2;PMS_P1;PMS_P2;Temp;Humidity;BMP_temperature;BMP_pressure;BME280_temperature;BME280_humidity;BME280_pressure;Samples;Min_cycle;Max_cycle;Signal;HPM_P1;HPM_P2
2021/11/26 00:00:22;;;;;;;45.80;18.25;;;;;;;3.00;100.00;95384.47;5060662;28;20044;-54
2021/11/26 00:02:52;;;;;;;43.60;16.92;;;;;;;2.89;100.00;95369.72;5062074;28;20067;-53
2021/11/26 00:05:21;;;;;;;45.17;18.33;;;;;;;2.93;100.00;95365.91;5061842;28;20049;-52
2021/11/26 00:07:49;;;;;;;45.78;18.33;;;;;;;3.28;100.00;95357.78;5061358;28;20572;-55
2021/11/26 00:10:19;;;;;;;41.00;17.95;;;;;;;3.31;100.00;95351.50;5060036;28;20072;-54
2021/11/26 00:12:53;;;;;;;44.20;18.20;;;;;;;3.25;100.00;95346.78;5057717;28;20762;-54
2021/11/26 00:15:34;;;;;;;45.55;16.90;;;;;;;3.03;100.00;95350.34;5062959;28;20505;-55
2021/11/26 00:18:08;;;;;;;48.75;18.40;;;;;;;3.11;100.00;95328.88;5053015;28;20087;-56
2021/11/26 00:20:37;;;;;;;44.53;17.65;;;;;;;3.20;100.00;95330.72;5055420;28;20071;-56
2021/11/26 00:23:07;;;;;;;44.63;17.63;;;;;;;3.06;100.00;95326.63;5062355;28;20083;-54
2021/11/26 00:25:35;;;;;;;40.50;17.45;;;;;;;3.01;100.00;95331.41;5064498;28;20251;-49
2021/11/26 00:28:04;;;;;;;43.95;16.38;;;;;;;2.98;100.00;95327.28;5060960;28;20067;-50
2021/11/26 00:30:33;;;;;;;41.17;17.98;;;;;;;2.88;100.00;95328.97;5061970;28;20079;-58
2021/11/26 00:33:02;;;;;;;42.83;17.88;;;;;;;2.78;100.00;95321.09;5061883;28;20082;-55
2021/11/26 00:35:32;;;;;;;44.40;18.80;;;;;;;2.81;100.00;95320.84;5060210;28;20056;-58
2021/11/26 00:38:03;;;;;;;46.63;17.60;;;;;;;2.61;100.00;95319.03;5063116;28;20412;-54
2021/11/26 00:40:31;;;;;;;40.72;16.20;;;;;;;2.38;100.00;95336.50;5065703;28;20036;-55
2021/11/26 00:43:00;;;;;;;43.75;17.15;;;;;;;2.23;100.00;95338.53;5063208;28;20068;-55
2021/11/26 00:45:28;;;;;;;44.47;17.90;;;;;;;2.50;100.00;95340.72;5062577;28;20091;-53
2021/11/26 00:47:57;;;;;;;47.10;17.85;;;;;;;2.45;100.00;95344.66;5064783;28;20106;-54
2021/11/26 00:50:25;;;;;;;43.75;17.13;;;;;;;2.60;100.00;95333.81;5060321;28;20076;-56
2021/11/26 00:52:56;;;;;;;51.85;17.92;;;;;;;2.49;100.00;95349.47;5063287;28;20052;-52
2021/11/26 00:55:24;;;;;;;41.63;16.92;;;;;;;2.52;100.00;95349.25;5056021;28;20061;-59
2021/11/26 00:57:52;;;;;;;42.28;16.77;;;;;;;2.67;100.00;95341.97;5061947;28;20056;-56
2021/11/26 01:00:21;;;;;;;44.65;17.58;;;;;;;2.86;100.00;95333.50;5070160;28;20521;-56
2021/11/26 01:02:50;;;;;;;43.38;16.42;;;;;;;2.59;100.00;95329.59;5045754;28;20051;-53
2021/11/26 01:05:19;;;;;;;42.63;17.08;;;;;;;2.84;100.00;95318.00;5045123;28;20063;-55
2021/11/26 01:07:47;;;;;;;49.30;18.33;;;;;;;3.02;100.00;95314.81;5057737;28;20482;-56
2021/11/26 01:10:19;;;;;;;42.20;17.17;;;;;;;2.98;100.00;95310.84;5061679;28;20029;-54
2021/11/26 01:12:47;;;;;;;42.42;17.45;;;;;;;2.84;100.00;95307.59;5056894;28;20065;-54
2021/11/26 01:15:19;;;;;;;45.92;17.73;;;;;;;3.22;100.00;95305.38;5063191;28;20052;-55
2021/11/26 01:17:48;;;;;;;43.03;17.05;;;;;;;3.34;100.00;95304.34;5060935;28;20074;-55
2021/11/26 01:20:19;;;;;;;42.83;17.75;;;;;;;3.36;100.00;95299.81;5063230;28;20052;-57
2021/11/26 01:22:47;;;;;;;42.97;17.00;;;;;;;2.88;100.00;95300.34;5067753;28;20084;-53
2021/11/26 01:25:18;;;;;;;45.50;17.77;;;;;;;2.88;100.00;95300.34;5061422;28;20487;-54
2021/11/26 01:27:46;;;;;;;40.75;17.45;;;;;;;3.03;100.00;95291.28;5056768;28;20453;-50
2021/11/26 01:30:22;;;;;;;43.13;18.23;;;;;;;3.03;100.00;95288.69;5056405;28;20037;-51
2021/11/26 01:32:51;;;;;;;45.38;18.55;;;;;;;2.99;100.00;95292.47;5056951;28;20064;-53
2021/11/26 01:35:20;;;;;;;48.90;18.95;;;;;;;3.38;100.00;95287.50;5058096;28;20276;-54
2021/11/26 01:37:49;;;;;;;45.38;18.63;;;;;;;3.50;100.00;95275.19;5059481;28;20503;-54
2021/11/26 01:40:20;;;;;;;42.25;17.05;;;;;;;3.31;100.00;95273.34;5057435;28;20456;-53
2021/11/26 01:42:50;;;;;;;47.30;17.50;;;;;;;3.06;100.00;95278.00;5040709;28;20519;-52
2021/11/26 01:45:19;;;;;;;46.85;17.60;;;;;;;3.03;100.00;95273.06;5066104;28;20044;-53
2021/11/26 01:47:47;;;;;;;42.25;16.92;;;;;;;2.81;100.00;95279.19;5057715;28;20083;-53
2021/11/26 01:50:18;;;;;;;41.35;17.35;;;;;;;3.02;100.00;95271.38;5065906;28;20056;-53
2021/11/26 01:52:46;;;;;;;42.38;18.13;;;;;;;3.22;100.00;95266.28;5059315;28;20409;-53
2021/11/26 01:55:15;;;;;;;45.88;16.95;;;;;;;3.17;100.00;95268.47;5060411;28;20057;-56
2021/11/26 01:57:46;;;;;;;42.47;17.33;;;;;;;2.95;100.00;95264.22;5058124;28;20072;-51
2021/11/26 02:00:17;;;;;;;39.85;16.38;;;;;;;2.80;100.00;95261.13;5054023;28;20154;-54
2021/11/26 02:02:46;;;;;;;41.42;17.20;;;;;;;2.96;100.00;95258.03;5061253;28;20110;-55
2021/11/26 02:05:15;;;;;;;45.30;17.65;;;;;;;3.02;100.00;95254.94;5057848;28;20045;-56
2021/11/26 02:07:43;;;;;;;46.28;16.67;;;;;;;2.83;100.00;95238.25;5060888;28;20554;-58
2021/11/26 02:10:11;;;;;;;50.65;18.50;;;;;;;2.71;100.00;95228.84;5053370;28;20075;-55
2021/11/26 02:12:40;;;;;;;53.55;19.80;;;;;;;2.83;100.00;95234.84;5059204;28;20073;-56
2021/11/26 02:15:10;;;;;;;48.67;19.05;;;;;;;2.92;100.00;95228.84;5064647;28;20159;-53
2021/11/26 02:17:39;;;;;;;58.28;20.20;;;;;;;2.51;100.00;95225.31;5055775;28;20087;-51
2021/11/26 02:20:16;;;;;;;53.28;18.83;;;;;;;2.87;100.00;95230.19;5058521;28;20536;-53
2021/11/26 02:22:44;;;;;;;48.05;17.42;;;;;;;2.65;100.00;95223.31;5059275;28;20098;-58
2021/11/26 02:25:13;;;;;;;55.63;19.08;;;;;;;2.83;100.00;95219.22;5053509;28;20171;-57
2021/11/26 02:27:42;;;;;;;55.85;19.95;;;;;;;3.11;100.00;95214.28;5054218;28;20780;-55
2021/11/26 02:30:15;;;;;;;49.97;19.15;;;;;;;3.06;100.00;95214.66;5056903;28;20060;-53
2021/11/26 02:32:46;;;;;;;48.88;18.92;;;;;;;3.18;100.00;95210.22;5054312;28;20076;-54
2021/11/26 02:35:16;;;;;;;53.28;19.23;;;;;;;3.01;100.00;95206.44;5056888;28;20076;-51
2021/11/26 02:37:45;;;;;;;43.58;17.05;;;;;;;2.71;100.00;95202.81;5063367;28;20080;-53
2021/11/26 02:40:17;;;;;;;47.67;17.38;;;;;;;2.88;100.00;95203.19;5062487;28;20148;-56
2021/11/26 02:42:45;;;;;;;48.70;17.63;;;;;;;2.82;100.00;95196.72;5060057;28;20585;-52
2021/11/26 02:45:15;;;;;;;44.67;18.60;;;;;;;2.86;100.00;95198.13;5061259;28;20080;-54
2021/11/26 02:47:43;;;;;;;45.85;17.65;;;;;;;2.93;100.00;95196.66;5058286;28;20064;-54
2021/11/26 02:50:13;;;;;;;47.17;16.65;;;;;;;2.99;100.00;95185.69;5055433;28;20087;-57
2021/11/26 02:52:43;;;;;;;48.40;17.33;;;;;;;3.22;100.00;95182.94;5062017;28;20037;-50
2021/11/26 02:55:12;;;;;;;;;;;;;;;3.23;100.00;95182.78;5059994;28;20087;-54
2021/11/26 02:57:41;;;;;;;49.47;18.17;;;;;;;3.13;100.00;95178.50;5053419;28;19975;-55
2021/11/26 03:00:13;;;;;;;42.40;17.42;;;;;;;3.19;100.00;95176.22;5055173;28;20037;-52
2021/11/26 03:02:42;;;;;;;54.05;18.73;;;;;;;3.01;100.00;95165.59;5056547;28;20069;-53
2021/11/26 03:05:11;;;;;;;51.45;18.08;;;;;;;2.94;100.00;95158.44;5062676;28;20080;-52
2021/11/26 03:07:40;;;;;;;51.95;19.33;;;;;;;2.89;100.00;95163.19;5061917;28;20041;-51
2021/11/26 03:10:13;;;;;;;57.17;20.75;;;;;;;2.95;100.00;95158.28;5057015;28;20068;-56
2021/11/26 03:12:41;;;;;;;52.78;18.80;;;;;;;3.06;100.00;95158.22;5050182;28;20418;-56
2021/11/26 03:15:10;;;;;;;50.88;18.67;;;;;;;3.19;100.00;95154.53;5055047;28;20037;-51
2021/11/26 03:17:38;;;;;;;46.97;18.65;;;;;;;3.33;100.00;95148.97;5063634;28;20071;-51
2021/11/26 03:20:09;;;;;;;52.45;18.48;;;;;;;3.47;100.00;95155.59;5060928;28;20073;-55
2021/11/26 03:22:38;;;;;;;51.88;19.63;;;;;;;3.57;100.00;95141.63;5062187;28;20458;-56
2021/11/26 03:25:07;;;;;;;58.17;20.63;;;;;;;3.48;100.00;95145.06;5059721;28;20045;-57
2021/11/26 03:27:37;;;;;;;50.67;19.10;;;;;;;3.54;100.00;95141.91;5059287;28;20064;-53
2021/11/26 03:30:07;;;;;;;56.30;19.80;;;;;;;3.38;100.00;95144.19;5058361;28;20056;-56
2021/11/26 03:32:36;;;;;;;52.85;19.33;;;;;;;3.08;100.00;95145.06;5063757;28;20071;-55
2021/11/26 03:35:05;;;;;;;57.15;19.50;;;;;;;3.32;100.00;95142.13;5065214;28;20085;-57
2021/11/26 03:37:34;;;;;;;52.83;20.38;;;;;;;2.97;100.00;95137.34;5056074;28;20227;-57
2021/11/26 03:40:06;;;;;;;59.38;19.40;;;;;;;2.74;100.00;95141.88;5062829;28;20044;-56
2021/11/26 03:42:34;;;;;;;57.72;19.75;;;;;;;2.66;100.00;95142.53;5059101;28;20060;-55
2021/11/26 03:45:07;;;;;;;55.47;19.88;;;;;;;2.94;100.00;95141.03;5060733;28;20069;-52
2021/11/26 03:47:36;;;;;;;56.67;20.70;;;;;;;2.65;100.00;95133.09;5064925;28;20064;-55
2021/11/26 03:50:05;;;;;;;54.17;20.00;;;;;;;2.89;100.00;95124.13;5059437;28;20060;-57
2021/11/26 03:52:34;;;;;;;55.88;19.75;;;;;;;2.68;100.00;95109.38;5062179;28;20287;-54
2021/11/26 03:55:04;;;;;;;56.20;19.35;;;;;;;2.82;100.00;95114.25;5055741;28;20075;-58
2021/11/26 03:57:32;;;;;;;51.28;18.55;;;;;;;2.57;100.00;95110.28;5062419;28;20075;-55
2021/11/26 04:00:00;;;;;;;52.05;18.50;;;;;;;2.54;100.00;95107.13;5054760;28;20080;-55
2021/11/26 04:02:30;;;;;;;60.40;19.00;;;;;;;2.43;100.00;95102.81;5054912;28;20071;-53
2021/11/26 04:05:00;;;;;;;57.42;20.92;;;;;;;2.63;100.00;95102.94;5061352;28;20084;-53
2021/11/26 04:07:29;;;;;;;53.13;19.95;;;;;;;2.63;100.00;95095.13;5054931;28;20115;-54
2021/11/26 04:09:58;;;;;;;51.90;17.38;;;;;;;2.45;100.00;95097.50;5056106;28;20120;-57
2021/11/26 04:12:27;;;;;;;53.25;18.15;;;;;;;2.28;100.00;95093.72;5064677;28;20080;-53
2021/11/26 04:14:56;;;;;;;54.55;19.20;;;;;;;2.40;100.00;95099.66;5064060;28;20522;-54
2021/11/26 04:17:24;;;;;;;52.30;17.60;;;;;;;2.38;100.00;95100.63;5055043;28;20091;-58
2021/11/26 04:19:54;;;;;;;62.55;20.08;;;;;;;2.51;100.00;95095.22;5052245;28;20091;-56
2021/11/26 04:22:23;;;;;;;59.58;20.90;;;;;;;2.45;100.00;95097.50;5049886;28;20077;-55
2021/11/26 04:24:51;;;;;;;56.75;20.02;;;;;;;2.51;100.00;95097.81;5054013;28;20060;-56
2021/11/26 04:27:19;;;;;;;51.13;19.17;;;;;;;2.63;100.00;95097.72;5066420;28;20076;-56
2021/11/26 04:29:48;;;;;;;53.83;19.60;;;;;;;2.56;100.00;95097.41;5059122;28;20488;-53
2021/11/26 04:32:16;;;;;;;54.72;19.63;;;;;;;2.37;100.00;95104.19;5063655;28;20056;-55
2021/11/26 04:34:45;;;;;;;57.13;19.08;;;;;;;2.48;100.00;95098.06;5058648;28;20072;-56
2021/11/26 04:37:15;;;;;;;50.03;18.13;;;;;;;2.59;100.00;95097.16;5051913;28;20075;-55
2021/11/26 04:39:44;;;;;;;51.38;16.95;;;;;;;3.02;100.00;95089.09;5054773;28;20073;-54
2021/11/26 04:42:12;;;;;;;43.35;17.13;;;;;;;2.75;100.00;95091.47;5053361;28;20073;-55
2021/11/26 04:44:41;;;;;;;47.35;17.73;;;;;;;2.68;100.00;95101.56;5060448;28;20053;-54
2021/11/26 04:47:09;;;;;;;41.75;16.55;;;;;;;2.78;100.00;95104.22;5055992;28;20076;-54
2021/11/26 04:49:38;;;;;;;42.35;15.45;;;;;;;2.48;100.00;95103.28;5055507;28;20076;-58
2021/11/26 04:52:07;;;;;;;53.65;17.77;;;;;;;2.67;100.00;95105.13;5055907;28;20076;-55
2021/11/26 04:54:36;;;;;;;46.75;15.82;;;;;;;2.53;100.00;95101.09;5059090;28;20087;-55
2021/11/26 04:57:05;;;;;;;50.53;17.25;;;;;;;2.65;100.00;95103.63;5056022;28;20075;-51
2021/11/26 04:59:34;;;;;;;46.40;16.77;;;;;;;2.65;100.00;95098.41;5052127;28;20065;-53
2021/11/26 05:02:02;;;;;;;42.65;15.63;;;;;;;2.58;100.00;95098.09;5056841;28;20483;-54
2021/11/26 05:04:31;;;;;;;41.88;15.05;;;;;;;2.48;100.00;95090.25;5059388;28;20594;-57
2021/11/26 05:07:01;;;;;;;53.05;16.40;;;;;;;2.57;100.00;95094.69;5058153;28;20068;-53
2021/11/26 05:09:30;;;;;;;49.95;16.30;;;;;;;2.60;100.00;95081.41;5054133;28;20072;-54
2021/11/26 05:12:01;;;;;;;42.33;15.40;;;;;;;2.51;100.00;95087.41;5067661;28;20044;-57
2021/11/26 05:14:31;;;;;;;41.53;14.82;;;;;;;2.65;100.00;95075.84;5060073;28;20538;-57
2021/11/26 05:16:59;;;;;;;40.13;15.45;;;;;;;2.97;100.00;95062.66;5059410;28;20073;-59
2021/11/26 05:19:28;;;;;;;39.30;15.13;;;;;;;2.97;100.00;95049.63;5058015;28;20096;-55
2021/11/26 05:21:57;;;;;;;42.55;15.75;;;;;;;2.61;100.00;95054.47;5059821;28;20346;-54
2021/11/26 05:24:25;;;;;;;48.88;16.92;;;;;;;2.68;100.00;95059.94;5055547;28;20585;-56
2021/11/26 05:26:54;;;;;;;44.00;15.32;;;;;;;2.56;100.00;95054.00;5061857;28;20060;-55
2021/11/26 05:29:23;;;;;;;46.70;16.30;;;;;;;2.33;100.00;95052.53;5055341;28;20080;-59
2021/11/26 05:31:52;;;;;;;32.42;11.77;;;;;;;2.36;100.00;95050.47;5057566;28;20711;-58
2021/11/26 05:34:20;;;;;;;39.58;14.32;;;;;;;2.53;100.00;95051.66;5060825;28;20060;-57
2021/11/26 05:36:49;;;;;;;42.75;15.02;;;;;;;2.57;100.00;95050.44;5063008;28;20089;-56
2021/11/26 05:39:17;;;;;;;37.03;13.95;;;;;;;2.52;100.00;95046.59;5060903;28;20064;-57
2021/11/26 05:41:46;;;;;;;48.88;15.07;;;;;;;2.60;100.00;95050.19;5054890;28;20075;-58
2021/11/26 05:44:14;;;;;;;40.40;13.95;;;;;;;2.55;100.00;95048.94;5054325;28;20088;-58
2021/11/26 05:46:44;;;;;;;45.15;15.98;;;;;;;2.86;100.00;95052.34;5063116;28;20797;-57
2021/11/26 05:49:12;;;;;;;43.42;15.18;;;;;;;2.88;100.00;95044.41;5062850;28;20431;-52
2021/11/26 05:51:41;;;;;;;41.30;15.15;;;;;;;2.52;100.00;95042.22;5054182;28;20069;-56
2021/11/26 05:54:09;;;;;;;48.17;17.15;;;;;;;2.43;100.00;95039.56;5051988;28;20072;-52
2021/11/26 05:56:38;;;;;;;46.72;15.07;;;;;;;2.21;100.00;95040.56;5060302;28;20065;-57
2021/11/26 05:59:07;;;;;;;26.88;9.82;;;;;;;2.24;100.00;95042.91;5060864;28;20101;-57
2021/11/26 06:01:35;;;;;;;44.63;15.13;;;;;;;2.47;100.00;95036.56;5052336;28;20464;-55
2021/11/26 06:04:06;;;;;;;45.25;14.50;;;;;;;2.26;100.00;95044.41;5053986;28;20048;-56
2021/11/26 06:06:34;;;;;;;34.90;13.43;;;;;;;2.24;100.00;95045.50;5060062;28;20072;-59
2021/11/26 06:09:02;;;;;;;40.33;14.60;;;;;;;2.45;100.00;95035.06;5057658;28;20345;-56
2021/11/26 06:11:31;;;;;;;36.13;12.98;;;;;;;2.44;100.00;95036.00;5053319;28;20071;-58
2021/11/26 06:13:59;;;;;;;38.50;13.93;;;;;;;2.65;100.00;95029.00;5058917;28;20072;-57
2021/11/26 06:16:30;;;;;;;39.85;13.25;;;;;;;2.19;100.00;95025.06;5060105;28;20060;-56
2021/11/26 06:18:58;;;;;;;38.22;12.55;;;;;;;2.19;100.00;95019.06;5055072;28;20110;-57
2021/11/26 06:21:28;;;;;;;39.88;14.25;;;;;;;2.14;100.00;95014.25;5055146;28;20060;-55
2021/11/26 06:23:56;;;;;;;42.00;14.07;;;;;;;2.40;100.00;95013.81;5049159;28;20061;-55
2021/11/26 06:26:25;;;;;;;44.45;13.95;;;;;;;2.50;100.00;95005.09;5066018;28;20049;-57
2021/11/26 06:28:54;;;;;;;37.35;14.18;;;;;;;2.52;100.00;95008.41;5062337;28;20084;-52
2021/11/26 06:31:22;;;;;;;39.78;14.07;;;;;;;2.49;100.00;95013.03;5062905;28;20056;-55
2021/11/26 06:33:50;;;;;;;22.00;9.90;;;;;;;2.34;100.00;95010.78;5053637;28;20068;-56
2021/11/26 06:36:19;;;;;;;21.13;9.20;;;;;;;2.25;100.00;95010.75;5060566;28;20083;-56
2021/11/26 06:38:49;;;;;;;37.67;12.32;;;;;;;2.42;100.00;95010.13;5059887;28;20072;-55
2021/11/26 06:41:17;;;;;;;33.22;12.50;;;;;;;2.54;100.00;95005.66;5059290;28;20577;-55
2021/11/26 06:43:45;;;;;;;37.75;13.55;;;;;;;2.32;100.00;95004.88;5062386;28;20087;-57
2021/11/26 06:46:14;;;;;;;31.45;12.02;;;;;;;2.17;100.00;95003.59;5054058;28;20064;-54
2021/11/26 06:48:42;;;;;;;33.47;13.68;;;;;;;2.46;100.00;94997.69;5052036;28;20496;-57
2021/11/26 06:51:11;;;;;;;39.47;13.93;;;;;;;2.32;100.00;94997.09;5053215;28;20064;-57
2021/11/26 06:53:39;;;;;;;37.40;13.77;;;;;;;2.46;100.00;94995.09;5057817;28;20076;-53
2021/11/26 06:56:09;;;;;;;36.25;14.68;;;;;;;2.45;100.00;94998.66;5057487;28;20092;-54
2021/11/26 06:58:37;;;;;;;36.38;13.95;;;;;;;2.43;100.00;94995.34;5060730;28;20076;-56
2021/11/26 07:01:06;;;;;;;34.95;13.85;;;;;;;2.42;100.00;94986.72;5065624;28;20064;-55
2021/11/26 07:03:34;;;;;;;36.45;12.52;;;;;;;2.28;100.00;94987.91;5062341;28;20060;-55
2021/11/26 07:06:03;;;;;;;36.15;13.05;;;;;;;2.44;100.00;94983.97;5054979;28;20127;-57
2021/11/26 07:08:32;;;;;;;35.67;13.90;;;;;;;2.54;100.00;94987.44;5064426;28;20072;-55
2021/11/26 07:11:01;;;;;;;40.22;14.07;;;;;;;2.46;100.00;94980.28;5055147;28;20078;-59
2021/11/26 07:13:31;;;;;;;43.28;15.02;;;;;;;2.30;100.00;94987.75;5056315;28;20276;-56
2021/11/26 07:16:00;;;;;;;40.90;14.32;;;;;;;2.34;100.00;94982.19;5052698;28;20060;-58
2021/11/26 07:18:28;;;;;;;50.95;16.67;;;;;;;2.35;100.00;94985.59;5051285;28;20077;-60
2021/11/26 07:20:57;;;;;;;50.83;16.17;;;;;;;2.48;100.00;94983.59;5059122;28;20048;-55
2021/11/26 07:23:25;;;;;;;54.55;16.48;;;;;;;2.46;100.00;94982.91;5045791;28;20088;-56
2021/11/26 07:25:54;;;;;;;51.80;16.58;;;;;;;2.50;100.00;94979.06;5046501;28;20071;-57
2021/11/26 07:28:24;;;;;;;51.30;16.63;;;;;;;2.75;100.00;94984.75;5051629;28;20071;-58
2021/11/26 07:30:55;;;;;;;51.92;16.35;;;;;;;2.72;100.00;94987.63;5056643;28;20067;-58
2021/11/26 07:33:24;;;;;;;51.60;17.23;;;;;;;2.84;100.00;94990.00;5046875;28;20072;-57
2021/11/26 07:35:53;;;;;;;52.17;16.48;;;;;;;2.77;100.00;94985.47;5028300;28;20072;-58
2021/11/26 07:38:21;;;;;;;63.50;16.90;;;;;;;2.74;100.00;94986.53;5050003;28;20076;-55
2021/11/26 07:40:52;;;;;;;60.05;18.02;;;;;;;2.66;100.00;94981.19;5057974;28;20092;-59
2021/11/26 07:43:21;;;;;;;60.05;19.23;;;;;;;2.88;100.00;94976.72;5061475;28;20059;-54
2021/11/26 07:45:49;;;;;;;60.50;19.00;;;;;;;2.73;100.00;94984.09;5052279;28;20523;-57
2021/11/26 07:48:19;;;;;;;59.85;17.92;;;;;;;2.99;100.00;94974.81;5046333;28;20075;-55
2021/11/26 07:50:48;;;;;;;57.15;18.08;;;;;;;2.99;100.00;94973.97;5063320;28;20147;-59
2021/11/26 07:53:16;;;;;;;57.50;17.33;;;;;;;2.72;100.00;94972.84;5058040;28;20083;-56
2021/11/26 07:55:45;;;;;;;54.15;18.27;;;;;;;2.57;100.00;94982.78;5055536;28;20064;-54
2021/11/26 07:58:14;;;;;;;54.05;17.05;;;;;;;2.98;100.00;94977.56;5051808;28;20080;-59
2021/11/26 08:00:42;;;;;;;54.88;17.33;;;;;;;2.79;100.00;94973.97;5049240;28;20065;-60
2021/11/26 08:03:12;;;;;;;56.67;17.98;;;;;;;2.83;100.00;94977.94;5058212;28;20099;-60
2021/11/26 08:06:02;;;;;;;65.13;19.90;;;;;;;2.83;100.00;94970.13;5047750;28;20073;-53
2021/11/26 08:08:30;;;;;;;67.57;19.05;;;;;;;2.44;100.00;94963.97;5055081;28;20076;-57
2021/11/26 08:10:59;;;;;;;64.53;18.17;;;;;;;2.72;100.00;94959.00;5054988;28;20059;-59
2021/11/26 08:13:27;;;;;;;54.35;17.85;;;;;;;2.65;100.00;94955.28;5060445;28;20067;-55
2021/11/26 08:15:56;;;;;;;65.10;18.58;;;;;;;2.68;100.00;94945.44;5056264;28;20057;-54
2021/11/26 08:18:24;;;;;;;53.22;17.65;;;;;;;2.78;100.00;94935.03;5061674;28;20072;-57
2021/11/26 08:20:53;;;;;;;57.08;18.92;;;;;;;2.40;100.00;94927.97;5056648;28;20641;-55
2021/11/26 08:23:28;;;;;;;54.80;17.13;;;;;;;2.66;100.00;94918.72;5062902;28;20084;-57
2021/11/26 08:25:57;;;;;;;53.53;17.25;;;;;;;2.74;100.00;94913.66;5064698;28;20349;-54
2021/11/26 08:28:26;;;;;;;49.23;16.40;;;;;;;2.60;100.00;94919.25;5056551;28;20064;-53
2021/11/26 08:30:56;;;;;;;61.80;18.88;;;;;;;2.80;100.00;94907.94;5050878;28;20486;-55
2021/11/26 08:33:25;;;;;;;62.35;17.05;;;;;;;2.45;100.00;94912.81;5058087;28;20072;-56
2021/11/26 08:35:54;;;;;;;60.00;18.87;;;;;;;2.44;100.00;94909.34;5050036;28;20076;-55
2021/11/26 08:38:23;;;;;;;52.47;17.38;;;;;;;2.46;100.00;94898.84;5051667;28;20088;-54
2021/11/26 08:40:53;;;;;;;51.28;16.45;;;;;;;2.40;100.00;94899.34;5058227;28;20676;-56
2021/11/26 08:43:21;;;;;;;59.10;18.23;;;;;;;2.60;100.00;94901.06;5057468;28;20580;-56
2021/11/26 08:45:49;;;;;;;54.38;17.08;;;;;;;2.74;100.00;94903.25;5058051;28;20072;-52
2021/11/26 08:48:18;;;;;;;59.40;17.30;;;;;;;2.71;100.00;94900.91;5049056;28;20072;-55
2021/11/26 08:50:50;;;;;;;51.70;17.88;;;;;;;2.55;100.00;94898.84;5056692;28;20071;-57
2021/11/26 08:53:19;;;;;;;49.90;17.00;;;;;;;2.59;100.00;94902.03;5055135;28;20083;-54
2021/11/26 08:55:50;;;;;;;52.50;16.58;;;;;;;2.68;100.00;94906.38;5061845;28;20091;-55
2021/11/26 08:58:20;;;;;;;51.13;16.15;;;;;;;2.85;100.00;94910.94;5066658;28;20503;-56
2021/11/26 09:00:49;;;;;;;53.40;16.55;;;;;;;2.89;100.00;94914.13;5059617;28;20431;-55
2021/11/26 09:03:18;;;;;;;53.78;16.35;;;;;;;2.91;100.00;94919.16;5036504;28;20515;-58
2021/11/26 09:05:46;;;;;;;54.53;16.65;;;;;;;2.85;100.00;94928.34;5061145;28;20466;-56
2021/11/26 09:08:15;;;;;;;46.45;16.13;;;;;;;2.90;100.00;94930.56;5064688;28;20092;-56
2021/11/26 09:10:45;;;;;;;51.08;16.90;;;;;;;2.49;100.00;94930.59;5054816;28;20080;-59
2021/11/26 09:13:15;;;;;;;57.55;16.60;;;;;;;2.72;100.00;94933.81;5059209;28;20080;-58
2021/11/26 09:15:45;;;;;;;44.75;15.05;;;;;;;2.41;100.00;94925.25;5059293;28;20079;-57
2021/11/26 09:18:15;;;;;;;46.17;15.85;;;;;;;2.19;100.00;94925.44;5066232;28;20068;-58
2021/11/26 09:20:49;;;;;;;45.58;14.90;;;;;;;2.31;100.00;94914.81;5061629;28;20052;-56
2021/11/26 09:23:19;;;;;;;48.03;15.25;;;;;;;2.41;100.00;94914.00;5063958;28;20088;-57
2021/11/26 09:25:48;;;;;;;42.28;15.35;;;;;;;2.37;100.00;94908.25;5044935;28;20065;-53
2021/11/26 09:28:16;;;;;;;45.45;14.90;;;;;;;2.48;100.00;94902.09;5062078;28;20076;-56
2021/11/26 09:30:48;;;;;;;47.47;16.73;;;;;;;2.53;100.00;94899.94;5059266;28;20072;-57
2021/11/26 09:33:18;;;;;;;51.25;16.85;;;;;;;2.62;100.00;94896.53;5056062;28;20072;-55
2021/11/26 09:35:47;;;;;;;46.13;15.00;;;;;;;2.46;100.00;94899.66;5061100;28;20071;-54
2021/11/26 09:38:15;;;;;;;46.65;14.98;;;;;;;2.40;100.00;94894.97;5061987;28;20083;-57
2021/11/26 09:40:44;;;;;;;49.97;15.18;;;;;;;2.54;100.00;94886.78;5063288;28;20085;-57
2021/11/26 09:43:13;;;;;;;47.47;15.98;;;;;;;2.64;100.00;94872.97;5054216;28;20065;-57
2021/11/26 09:45:42;;;;;;;48.72;16.63;;;;;;;2.34;100.00;94877.28;5048088;28;20069;-57
2021/11/26 09:48:11;;;;;;;49.50;15.43;;;;;;;2.22;100.00;94875.78;5059492;28;20068;-57
2021/11/26 09:50:40;;;;;;;32.93;11.53;;;;;;;2.24;100.00;94869.50;5060884;28;20088;-56
2021/11/26 09:53:12;;;;;;;50.22;14.82;;;;;;;2.11;100.00;94858.50;5047132;28;20501;-55
2021/11/26 09:55:45;;;;;;;48.95;16.00;;;;;;;1.99;100.00;94860.38;5053324;28;20091;-55
2021/11/26 09:58:14;;;;;;;45.13;14.30;;;;;;;2.01;100.00;94852.47;5060295;28;20076;-57
2021/11/26 10:00:43;;;;;;;45.38;15.02;;;;;;;2.16;100.00;94845.91;5057020;28;20080;-58
2021/11/26 10:03:13;;;;;;;34.97;11.93;;;;;;;2.37;100.00;94845.81;5055973;28;20488;-58
2021/11/26 10:05:44;;;;;;;36.78;13.57;;;;;;;2.38;100.00;94834.47;5064684;28;20072;-55
2021/11/26 10:08:13;;;;;;;37.35;13.38;;;;;;;2.59;100.00;94826.56;5061124;28;20080;-56
2021/11/26 10:10:42;;;;;;;42.47;14.38;;;;;;;2.54;100.00;94818.31;5061824;28;20076;-53
2021/11/26 10:13:13;;;;;;;37.67;13.00;;;;;;;2.66;100.00;94825.06;5060304;28;20072;-55
2021/11/26 10:15:43;;;;;;;41.25;14.85;;;;;;;2.96;100.00;94810.22;5054014;28;20087;-56
2021/11/26 10:18:15;;;;;;;50.92;16.55;;;;;;;3.05;100.00;94812.00;5050239;28;20072;-57
2021/11/26 10:20:57;;;;;;;50.53;16.02;;;;;;;2.73;100.00;94802.72;5056811;28;20076;-54
2021/11/26 10:23:27;;;;;;;47.97;15.68;;;;;;;2.95;100.00;94796.41;5059474;28;20152;-54
2021/11/26 10:25:59;;;;;;;50.40;15.55;;;;;;;2.93;100.00;94798.34;5054791;28;20626;-54
2021/11/26 10:28:37;;;;;;;49.92;15.50;;;;;;;3.07;100.00;94787.47;5053463;28;20072;-54
2021/11/26 10:31:06;;;;;;;45.75;15.65;;;;;;;2.98;100.00;94779.69;5060234;28;20072;-57
2021/11/26 10:33:58;;;;;;;48.33;16.70;;;;;;;3.18;100.00;94770.06;5060134;28;20060;-54
2021/11/26 10:36:28;;;;;;;47.70;16.52;;;;;;;3.16;100.00;94764.16;5049180;28;20069;-56
2021/11/26 10:38:57;;;;;;;41.42;14.25;;;;;;;3.15;100.00;94762.53;5060072;28;20122;-56
2021/11/26 10:41:29;;;;;;;43.60;15.40;;;;;;;3.36;100.00;94759.72;5055078;28;20076;-56
2021/11/26 10:44:05;;;;;;;42.05;14.80;;;;;;;3.31;100.00;94758.38;5062606;28;20084;-58
2021/11/26 10:46:46;;;;;;;41.83;14.60;;;;;;;3.51;100.00;94753.06;5056549;28;20530;-57
2021/11/26 11:00:30;;;;;;;38.63;14.10;;;;;;;3.81;100.00;94721.50;5038081;28;20068;-56
2021/11/26 11:03:00;;;;;;;37.58;13.48;;;;;;;3.54;100.00;94724.97;5049476;28;20075;-58
2021/11/26 11:05:32;;;;;;;39.00;14.65;;;;;;;3.78;100.00;94723.56;5062603;28;20072;-59
2021/11/26 11:08:02;;;;;;;36.63;13.63;;;;;;;3.87;100.00;94720.09;5054578;28;20091;-55
2021/11/26 11:10:33;;;;;;;40.05;15.45;;;;;;;3.59;100.00;94721.91;5059884;28;20349;-55
2021/11/26 11:13:09;;;;;;;42.80;15.55;;;;;;;3.59;100.00;94719.31;5047172;28;20071;-54
2021/11/26 11:15:38;;;;;;;40.47;15.48;;;;;;;3.37;100.00;94720.47;5056498;28;20080;-54
2021/11/26 11:18:08;;;;;;;42.10;15.95;;;;;;;3.57;100.00;94713.41;5063361;28;20068;-53
2021/11/26 11:20:38;;;;;;;45.75;15.73;;;;;;;3.79;100.00;94713.03;5053036;28;20061;-56
2021/11/26 11:23:08;;;;;;;37.72;13.95;;;;;;;3.88;100.00;94700.06;5056191;28;20088;-54
2021/11/26 11:25:36;;;;;;;28.00;11.68;;;;;;;3.08;100.00;94697.97;5053003;28;20079;-59
2021/11/26 11:28:08;;;;;;;30.08;11.63;;;;;;;3.50;100.00;94701.91;5052130;28;20073;-55
2021/11/26 11:30:37;;;;;;;30.15;11.55;;;;;;;3.43;100.00;94691.25;5057694;28;20071;-57
2021/11/26 11:33:05;;;;;;;34.17;13.15;;;;;;;3.64;100.00;94688.41;5053296;28;20075;-55
2021/11/26 11:35:37;;;;;;;37.42;13.32;;;;;;;3.40;100.00;94685.50;5050097;28;20064;-56
2021/11/26 11:38:10;;;;;;;37.88;13.48;;;;;;;3.76;100.00;94674.22;5058767;28;20113;-56